Time;durP1;ratioP1;P1;durP2;ratioP2;P2;SDS_P1;SDS_P2;PMS_P1;PMS_P2;Temp;Humidity;BMP_temperature;BMP_pressure;BME280_temperature;BME280_humidity;BME280_pressure;Samples;Min_cycle;Max_cycle;Signal;HPM_P1;HPM_P2
2021/06/18 00:02:22;;;;;;;;;;;26.20;49.80;;;;;;5030663;28;19927;-61
2021/06/18 00:04:48;;;;;;;;;;;26.20;49.60;;;;;;5040144;28;19917;-61
2021/06/18 00:07:13;;;;;;;;;;;26.20;50.00;;;;;;5035727;28;19971;-60
2021/06/18 00:09:39;;;;;;;;;;;26.20;49.80;;;;;;5018315;28;19932;-62
2021/06/18 00:12:04;;;;;;;;;;;26.20;49.60;;;;;;5031993;28;20296;-62
2021/06/18 00:14:30;;;;;;;;;;;26.20;49.90;;;;;;5034962;28;20051;-60
2021/06/18 00:16:55;;;;;;;;;;;26.20;50.00;;;;;;5034740;28;20506;-62
2021/06/18 00:19:21;;;;;;;;;;;26.20;50.40;;;;;;5033039;28;19924;-61
2021/06/18 00:21:46;;;;;;;;;;;26.20;50.20;;;;;;5016447;28;19928;-61
2021/06/18 00:24:12;;;;;;;;;;;26.20;49.90;;;;;;5041145;28;20331;-62
2021/06/18 00:26:37;;;;;;;;;;;26.20;49.80;;;;;;5033761;28;21199;-60
2021/06/18 00:29:02;;;;;;;;;;;26.20;50.20;;;;;;5037339;28;19921;-60
2021/06/18 00:31:28;;;;;;;;;;;26.20;50.40;;;;;;5027605;28;19947;-62
2021/06/18 00:33:53;;;;;;;;;;;26.20;50.20;;;;;;5029652;28;20351;-61
2021/06/18 00:36:19;;;;;;;;;;;26.20;50.30;;;;;;5031863;28;19917;-61
2021/06/18 00:38:44;;;;;;;;;;;26.20;50.30;;;;;;5033438;28;19921;-63
2021/06/18 00:41:10;;;;;;;;;;;26.20;50.10;;;;;;5037449;28;20389;-61
2021/06/18 00:43:35;;;;;;;;;;;26.20;50.30;;;;;;5032069;28;19936;-62
2021/06/18 00:46:01;;;;;;;;;;;26.20;50.30;;;;;;5033326;28;19955;-61
2021/06/18 00:48:26;;;;;;;;;;;26.20;50.10;;;;;;5029457;28;20013;-59
2021/06/18 00:50:52;;;;;;;;;;;26.20;50.30;;;;;;5023702;28;20436;-62
2021/06/18 00:53:17;;;;;;;;;;;26.20;50.20;;;;;;5037219;28;19923;-62
2021/06/18 00:55:45;;;;;;;;;;;26.20;50.40;;;;;;5030097;28;19929;-61
2021/06/18 00:58:10;;;;;;;;;;;26.20;50.10;;;;;;5031987;28;19917;-61
2021/06/18 01:00:36;;;;;;;;;;;26.20;50.50;;;;;;5032948;28;19925;-63
2021/06/18 01:03:01;;;;;;;;;;;26.20;50.40;;;;;;5031969;28;20386;-60
2021/06/18 01:05:27;;;;;;;;;;;26.20;50.40;;;;;;5029245;28;19927;-63
2021/06/18 01:07:52;;;;;;;;;;;26.20;50.00;;;;;;5026980;28;19920;-64
2021/06/18 01:10:17;;;;;;;;;;;26.20;50.30;;;;;;5038990;28;19928;-60
2021/06/18 01:12:51;;;;;;;;;;;26.10;50.20;;;;;;5032799;28;19925;-62
2021/06/18 01:15:42;;;;;;;;;;;26.10;50.00;;;;;;5031970;28;20403;-62
2021/06/18 01:18:11;;;;;;;;;;;26.10;50.00;;;;;;4995619;28;19921;-62
2021/06/18 01:20:39;;;;;;;;;;;26.10;50.00;;;;;;5028318;28;19952;-62
2021/06/18 01:23:08;;;;;;;;;;;26.10;50.00;;;;;;5034544;28;20000;-62
2021/06/18 01:25:41;;;;;;;;;;;26.10;50.00;;;;;;5030211;28;19921;-60
2021/06/18 01:28:25;;;;;;;;;;;26.10;50.10;;;;;;5033374;28;19917;-63
2021/06/18 01:30:50;;;;;;;;;;;26.10;50.10;;;;;;5033925;28;19925;-59
2021/06/18 01:33:16;;;;;;;;;;;26.10;50.10;;;;;;5038607;28;19987;-60
2021/06/18 01:35:42;;;;;;;;;;;26.10;50.10;;;;;;5030052;28;20057;-63
2021/06/18 01:38:08;;;;;;;;;;;26.10;50.10;;;;;;5029582;28;19928;-62
2021/06/18 01:40:34;;;;;;;;;;;26.10;50.10;;;;;;5027392;28;20508;-62
2021/06/18 01:43:00;;;;;;;;;;;26.10;50.20;;;;;;5026065;28;19921;-62
2021/06/18 01:45:26;;;;;;;;;;;26.10;50.10;;;;;;5035878;28;19921;-62
2021/06/18 01:47:52;;;;;;;;;;;26.10;50.20;;;;;;5023636;28;19924;-62
2021/06/18 01:50:19;;;;;;;;;;;26.10;50.10;;;;;;5028225;28;19925;-62
2021/06/18 01:52:45;;;;;;;;;;;26.10;50.20;;;;;;5040598;28;19920;-61
2021/06/18 01:55:10;;;;;;;;;;;26.10;50.80;;;;;;5031847;28;20366;-61
2021/06/18 01:57:36;;;;;;;;;;;26.10;50.30;;;;;;5024692;28;19928;-62
2021/06/18 02:00:04;;;;;;;;;;;26.00;50.30;;;;;;5025296;28;19921;-61
2021/06/18 02:02:29;;;;;;;;;;;26.10;50.40;;;;;;5028290;28;19917;-62
2021/06/18 02:04:55;;;;;;;;;;;26.10;50.30;;;;;;5018282;28;19928;-62
2021/06/18 02:07:21;;;;;;;;;;;26.10;50.20;;;;;;5024551;28;20442;-63
2021/06/18 02:09:47;;;;;;;;;;;26.00;50.20;;;;;;5038408;28;20394;-61
2021/06/18 02:12:13;;;;;;;;;;;26.00;50.40;;;;;;5031379;28;21311;-62
2021/06/18 02:14:38;;;;;;;;;;;26.00;50.20;;;;;;5035828;28;19932;-63
2021/06/18 02:17:04;;;;;;;;;;;26.00;50.00;;;;;;5038035;28;19925;-60
2021/06/18 02:19:30;;;;;;;;;;;26.00;50.00;;;;;;5030132;28;20390;-60
2021/06/18 02:21:56;;;;;;;;;;;26.10;50.10;;;;;;5036943;28;20031;-59
2021/06/18 02:24:23;;;;;;;;;;;26.00;50.00;;;;;;5034076;28;20012;-61
2021/06/18 02:26:48;;;;;;;;;;;26.00;50.00;;;;;;5034731;28;19925;-62
2021/06/18 02:29:14;;;;;;;;;;;26.10;50.10;;;;;;5031351;28;19925;-62
2021/06/18 02:31:40;;;;;;;;;;;26.00;50.10;;;;;;5036744;28;20007;-61
2021/06/18 02:34:06;;;;;;;;;;;26.00;50.20;;;;;;5038993;28;20692;-62
2021/06/18 02:36:31;;;;;;;;;;;26.00;50.20;;;;;;5030273;28;19956;-61
2021/06/18 02:38:56;;;;;;;;;;;26.00;50.20;;;;;;5037767;28;19920;-62
2021/06/18 02:41:22;;;;;;;;;;;26.00;50.30;;;;;;5032024;28;19967;-59
2021/06/18 02:43:47;;;;;;;;;;;26.00;50.30;;;;;;5026558;28;19928;-62
2021/06/18 02:46:16;;;;;;;;;;;26.00;50.30;;;;;;5022060;28;19932;-61
2021/06/18 02:48:42;;;;;;;;;;;26.00;50.40;;;;;;5021778;28;19924;-62
2021/06/18 02:51:11;;;;;;;;;;;26.00;50.40;;;;;;5027155;28;20622;-62
2021/06/18 02:53:45;;;;;;;;;;;26.00;50.40;;;;;;5026305;28;19921;-62
2021/06/18 02:56:13;;;;;;;;;;;26.00;50.40;;;;;;5044579;22;20155;-63
2021/06/18 02:58:45;;;;;;;;;;;26.00;50.50;;;;;;5021698;28;19946;-62
2021/06/18 03:01:10;;;;;;;;;;;26.00;50.50;;;;;;5021929;28;19955;-62
2021/06/18 03:03:39;;;;;;;;;;;26.00;50.40;;;;;;5036452;28;19927;-61
2021/06/18 03:06:05;;;;;;;;;;;25.90;50.40;;;;;;5008626;28;20215;-62
2021/06/18 03:08:34;;;;;;;;;;;25.90;50.40;;;;;;5022567;28;19917;-62
2021/06/18 03:10:59;;;;;;;;;;;25.90;50.50;;;;;;5007760;28;19921;-61
2021/06/18 03:13:30;;;;;;;;;;;25.90;50.40;;;;;;5028482;28;20436;-62
2021/06/18 03:15:56;;;;;;;;;;;26.00;50.50;;;;;;5017943;28;20397;-61
2021/06/18 03:18:22;;;;;;;;;;;25.90;50.40;;;;;;5017755;28;19917;-61
2021/06/18 03:20:50;;;;;;;;;;;25.90;50.40;;;;;;5011357;28;19967;-61
2021/06/18 03:23:15;;;;;;;;;;;25.90;50.50;;;;;;5022927;28;19921;-61
2021/06/18 03:25:41;;;;;;;;;;;25.90;50.60;;;;;;5015412;28;19917;-62
2021/06/18 03:28:07;;;;;;;;;;;25.90;50.70;;;;;;5010708;28;19917;-60
2021/06/18 03:30:33;;;;;;;;;;;25.90;50.80;;;;;;5011456;28;19954;-61
2021/06/18 03:32:58;;;;;;;;;;;25.90;50.80;;;;;;5023108;28;19960;-61
2021/06/18 03:35:23;;;;;;;;;;;25.90;50.90;;;;;;5006581;28;19921;-60
2021/06/18 03:37:49;;;;;;;;;;;25.90;51.10;;;;;;5008507;28;19917;-61
2021/06/18 03:40:15;;;;;;;;;;;25.80;51.30;;;;;;5006774;28;19967;-61
2021/06/18 03:42:40;;;;;;;;;;;25.80;51.30;;;;;;5016667;28;19918;-60
2021/06/18 03:45:06;;;;;;;;;;;25.80;51.30;;;;;;5018010;28;19929;-61
2021/06/18 03:47:31;;;;;;;;;;;25.80;51.00;;;;;;5026139;28;20016;-60
2021/06/18 03:49:57;;;;;;;;;;;25.70;50.50;;;;;;4998992;28;19925;-61
2021/06/18 03:52:22;;;;;;;;;;;25.70;50.60;;;;;;5001491;28;19917;-61
2021/06/18 03:54:48;;;;;;;;;;;25.70;50.50;;;;;;5030244;28;20397;-62
2021/06/18 03:57:14;;;;;;;;;;;25.70;50.40;;;;;;5008278;28;19951;-61
2021/06/18 03:59:40;;;;;;;;;;;25.70;50.40;;;;;;5017845;28;20306;-60
2021/06/18 04:02:05;;;;;;;;;;;25.70;50.40;;;;;;5009691;28;19924;-61
2021/06/18 04:04:31;;;;;;;;;;;25.70;50.40;;;;;;5014472;28;19917;-62
2021/06/18 04:06:57;;;;;;;;;;;25.70;50.40;;;;;;4999123;28;19918;-62
2021/06/18 04:09:22;;;;;;;;;;;25.70;50.50;;;;;;5009888;28;19955;-62
2021/06/18 04:11:48;;;;;;;;;;;25.70;50.40;;;;;;5000159;28;20358;-61
2021/06/18 04:14:14;;;;;;;;;;;25.70;50.40;;;;;;5013908;28;19922;-61
2021/06/18 04:16:39;;;;;;;;;;;25.60;50.40;;;;;;4995586;28;20024;-62
2021/06/18 04:19:08;;;;;;;;;;;25.70;50.40;;;;;;5003091;28;19974;-60
2021/06/18 04:21:33;;;;;;;;;;;25.60;50.40;;;;;;5008825;28;19920;-60
2021/06/18 04:23:59;;;;;;;;;;;25.60;50.50;;;;;;5027661;28;20522;-62
2021/06/18 04:26:24;;;;;;;;;;;25.60;50.40;;;;;;5007954;28;19924;-59
2021/06/18 04:28:50;;;;;;;;;;;25.60;50.50;;;;;;5019363;28;20368;-62
2021/06/18 04:31:15;;;;;;;;;;;25.60;50.50;;;;;;5008305;28;19917;-62
2021/06/18 04:33:41;;;;;;;;;;;25.60;50.60;;;;;;5019063;28;20441;-62
2021/06/18 04:36:06;;;;;;;;;;;25.60;50.60;;;;;;5024586;28;19921;-62
2021/06/18 04:38:32;;;;;;;;;;;25.60;50.70;;;;;;4999922;28;19963;-59
2021/06/18 04:40:57;;;;;;;;;;;25.60;50.70;;;;;;5032272;28;19943;-62
2021/06/18 04:43:23;;;;;;;;;;;25.60;50.60;;;;;;5034209;28;19921;-61
2021/06/18 04:45:48;;;;;;;;;;;25.70;50.80;;;;;;5031494;28;19925;-60
2021/06/18 04:48:14;;;;;;;;;;;25.70;50.90;;;;;;5006003;28;19924;-62
2021/06/18 04:50:39;;;;;;;;;;;25.70;51.10;;;;;;5026015;28;19925;-62
2021/06/18 04:53:05;;;;;;;;;;;25.70;51.50;;;;;;5032010;28;19921;-62
2021/06/18 04:55:30;;;;;;;;;;;25.70;51.00;;;;;;4994707;28;20015;-62
2021/06/18 04:57:56;;;;;;;;;;;25.70;51.40;;;;;;5027736;28;19925;-62
2021/06/18 05:00:24;;;;;;;;;;;25.70;51.10;;;;;;5033993;28;20701;-62
2021/06/18 05:02:50;;;;;;;;;;;25.70;51.00;;;;;;5012358;28;19921;-63
2021/06/18 05:05:15;;;;;;;;;;;25.70;50.30;;;;;;5030547;28;20394;-62
2021/06/18 05:07:41;;;;;;;;;;;25.60;50.00;;;;;;4998602;28;20309;-62
2021/06/18 05:10:07;;;;;;;;;;;25.70;50.10;;;;;;5023706;28;19921;-62
2021/06/18 05:12:33;;;;;;;;;;;25.70;50.40;;;;;;5024261;28;19935;-63
2021/06/18 05:14:58;;;;;;;;;;;25.60;50.10;;;;;;5019073;28;19925;-63
2021/06/18 05:17:23;;;;;;;;;;;25.60;50.00;;;;;;5027538;28;19925;-61
2021/06/18 05:19:49;;;;;;;;;;;25.60;50.20;;;;;;5023162;28;19973;-63
2021/06/18 05:22:14;;;;;;;;;;;25.60;50.20;;;;;;5031315;28;19917;-62
2021/06/18 05:24:40;;;;;;;;;;;25.60;50.40;;;;;;5008508;28;19964;-62
2021/06/18 05:27:05;;;;;;;;;;;25.60;50.70;;;;;;5028870;28;19928;-63
2021/06/18 05:29:31;;;;;;;;;;;25.60;50.70;;;;;;5022120;28;20333;-62
2021/06/18 05:31:56;;;;;;;;;;;25.70;50.30;;;;;;5021313;28;19975;-63
2021/06/18 05:34:22;;;;;;;;;;;25.70;50.70;;;;;;5036258;28;19917;-60
2021/06/18 05:36:47;;;;;;;;;;;25.70;51.10;;;;;;5044428;28;19917;-62
2021/06/18 05:39:12;;;;;;;;;;;25.70;51.60;;;;;;5005733;28;19983;-60
2021/06/18 05:41:38;;;;;;;;;;;25.80;51.60;;;;;;5030442;28;19917;-62
2021/06/18 05:44:03;;;;;;;;;;;25.70;51.40;;;;;;5037045;28;20003;-62
2021/06/18 05:46:29;;;;;;;;;;;25.80;51.50;;;;;;5020160;28;20393;-63
2021/06/18 05:48:55;;;;;;;;;;;25.80;51.50;;;;;;5044355;28;19931;-62
2021/06/18 05:51:20;;;;;;;;;;;25.80;51.40;;;;;;5037822;28;19917;-61
2021/06/18 05:53:45;;;;;;;;;;;25.80;51.50;;;;;;5038035;28;19994;-62
2021/06/18 05:56:11;;;;;;;;;;;25.80;51.50;;;;;;5035836;28;19924;-61
2021/06/18 05:58:36;;;;;;;;;;;25.90;51.60;;;;;;5039572;28;19917;-62
2021/06/18 06:01:02;;;;;;;;;;;25.90;51.60;;;;;;5014217;28;20329;-62
2021/06/18 06:03:27;;;;;;;;;;;25.90;51.60;;;;;;5024990;28;19914;-61
2021/06/18 06:05:53;;;;;;;;;;;25.80;51.60;;;;;;5037773;28;19917;-61
2021/06/18 06:08:18;;;;;;;;;;;25.90;51.80;;;;;;5040497;28;19916;-62
2021/06/18 06:10:44;;;;;;;;;;;25.90;51.80;;;;;;5039113;28;20294;-61
2021/06/18 06:13:09;;;;;;;;;;;25.90;51.80;;;;;;5041029;28;19913;-61
2021/06/18 06:15:35;;;;;;;;;;;25.90;51.80;;;;;;5035115;28;19917;-62
2021/06/18 06:18:00;;;;;;;;;;;25.90;51.80;;;;;;5040577;28;20386;-62
2021/06/18 06:20:26;;;;;;;;;;;25.90;51.80;;;;;;5025765;28;19979;-61
2021/06/18 06:22:52;;;;;;;;;;;25.90;51.90;;;;;;5033901;28;19913;-62
2021/06/18 06:25:17;;;;;;;;;;;25.90;51.90;;;;;;5034214;28;20332;-62
2021/06/18 06:27:42;;;;;;;;;;;25.90;51.90;;;;;;5032384;28;19917;-61
2021/06/18 06:30:08;;;;;;;;;;;25.90;51.90;;;;;;5029860;28;19960;-61
2021/06/18 06:32:34;;;;;;;;;;;25.90;51.90;;;;;;5014685;28;19917;-61
2021/06/18 06:35:00;;;;;;;;;;;25.90;51.90;;;;;;5027033;28;19921;-62
2021/06/18 06:37:25;;;;;;;;;;;25.90;52.00;;;;;;5021458;28;19936;-61
2021/06/18 06:39:51;;;;;;;;;;;25.90;52.00;;;;;;5014756;28;19913;-63
2021/06/18 06:42:16;;;;;;;;;;;25.90;52.00;;;;;;5038082;28;19928;-62
2021/06/18 06:44:41;;;;;;;;;;;25.90;52.00;;;;;;5009721;28;19924;-61
2021/06/18 06:47:07;;;;;;;;;;;25.90;52.00;;;;;;5031131;28;19913;-62
2021/06/18 06:49:32;;;;;;;;;;;25.90;52.00;;;;;;5021856;28;20301;-61
2021/06/18 06:51:58;;;;;;;;;;;25.90;52.00;;;;;;5030903;28;19913;-62
2021/06/18 06:54:26;;;;;;;;;;;25.90;52.10;;;;;;5030503;28;19925;-61
2021/06/18 06:56:53;;;;;;;;;;;25.90;52.20;;;;;;5025978;28;19985;-62
2021/06/18 06:59:18;;;;;;;;;;;25.90;52.80;;;;;;5026953;28;19917;-63
2021/06/18 07:01:44;;;;;;;;;;;26.00;52.20;;;;;;5023611;28;19916;-61
2021/06/18 07:04:09;;;;;;;;;;;25.90;52.10;;;;;;5010148;28;19914;-62
2021/06/18 07:06:37;;;;;;;;;;;25.90;52.10;;;;;;5031613;28;19913;-62
2021/06/18 07:09:03;;;;;;;;;;;25.90;52.20;;;;;;5035118;28;20301;-63
2021/06/18 07:11:29;;;;;;;;;;;25.90;52.20;;;;;;5008176;28;19916;-61
2021/06/18 07:13:54;;;;;;;;;;;25.90;52.20;;;;;;5031874;28;19923;-61
2021/06/18 07:16:20;;;;;;;;;;;25.90;52.20;;;;;;5023235;28;19913;-64
2021/06/18 07:18:45;;;;;;;;;;;25.90;52.20;;;;;;5021353;28;19967;-62
2021/06/18 07:21:10;;;;;;;;;;;25.90;52.20;;;;;;5034612;28;19969;-61
2021/06/18 07:23:36;;;;;;;;;;;25.90;52.30;;;;;;5018444;28;19928;-63
2021/06/18 07:26:02;;;;;;;;;;;25.90;52.20;;;;;;5030890;28;20268;-62
2021/06/18 07:28:27;;;;;;;;;;;26.00;52.90;;;;;;5026179;28;19922;-62
2021/06/18 07:30:53;;;;;;;;;;;26.00;52.50;;;;;;5026026;28;20070;-63
2021/06/18 07:33:18;;;;;;;;;;;25.90;52.20;;;;;;5020182;28;19917;-62
2021/06/18 07:35:43;;;;;;;;;;;26.00;52.40;;;;;;5030469;28;20407;-62
2021/06/18 07:38:09;;;;;;;;;;;26.00;52.40;;;;;;5038871;28;19927;-62
2021/06/18 07:40:34;;;;;;;;;;;25.90;52.30;;;;;;5038527;28;19913;-62
2021/06/18 07:43:00;;;;;;;;;;;26.00;52.50;;;;;;5019658;28;19971;-63
2021/06/18 07:45:25;;;;;;;;;;;26.00;52.40;;;;;;5041666;28;20023;-62
2021/06/18 07:47:51;;;;;;;;;;;26.00;52.30;;;;;;5019170;28;19927;-62
2021/06/18 07:50:16;;;;;;;;;;;26.00;52.30;;;;;;5041655;28;19920;-62
2021/06/18 07:52:42;;;;;;;;;;;26.00;52.40;;;;;;5020102;28;19972;-63
2021/06/18 07:55:10;;;;;;;;;;;26.00;52.40;;;;;;5021415;28;20345;-62
2021/06/18 07:57:36;;;;;;;;;;;26.00;52.40;;;;;;5020675;28;20004;-63
2021/06/18 08:00:04;;;;;;;;;;;26.00;52.40;;;;;;5022034;28;20029;-61
2021/06/18 08:02:30;;;;;;;;;;;26.00;52.30;;;;;;5023624;28;19920;-61
2021/06/18 08:04:55;;;;;;;;;;;26.00;52.30;;;;;;5027635;28;20294;-61
2021/06/18 08:07:22;;;;;;;;;;;26.00;52.40;;;;;;5008067;28;19968;-61
2021/06/18 08:09:47;;;;;;;;;;;26.00;52.40;;;;;;5021798;28;19945;-62
2021/06/18 08:12:12;;;;;;;;;;;26.00;52.30;;;;;;5024857;28;20402;-61
2021/06/18 08:14:38;;;;;;;;;;;26.00;52.30;;;;;;5026093;28;19927;-63
2021/06/18 08:17:03;;;;;;;;;;;26.00;52.20;;;;;;5028489;28;19970;-63
2021/06/18 08:19:29;;;;;;;;;;;26.00;52.30;;;;;;5040315;28;19916;-60
2021/06/18 08:21:54;;;;;;;;;;;26.00;52.20;;;;;;5026123;28;19923;-59
2021/06/18 08:24:20;;;;;;;;;;;26.00;52.20;;;;;;5024080;28;19917;-62
2021/06/18 08:26:45;;;;;;;;;;;26.00;52.20;;;;;;5026980;28;19937;-62
2021/06/18 08:29:11;;;;;;;;;;;26.00;52.20;;;;;;5027431;28;20028;-62
2021/06/18 08:31:36;;;;;;;;;;;26.00;52.30;;;;;;5037396;28;19922;-62
2021/06/18 08:34:02;;;;;;;;;;;26.10;52.20;;;;;;5033577;28;20511;-60
2021/06/18 08:36:27;;;;;;;;;;;26.00;52.30;;;;;;5024533;28;20012;-63
2021/06/18 08:38:52;;;;;;;;;;;26.00;52.40;;;;;;5028435;28;19917;-63
2021/06/18 08:41:18;;;;;;;;;;;26.10;52.30;;;;;;5028231;28;20310;-63
2021/06/18 08:43:44;;;;;;;;;;;26.10;52.30;;;;;;5028591;28;20402;-62
2021/06/18 08:46:09;;;;;;;;;;;26.00;52.20;;;;;;5022559;28;19921;-63
2021/06/18 08:48:34;;;;;;;;;;;26.00;52.20;;;;;;5041742;28;19917;-61
2021/06/18 08:51:00;;;;;;;;;;;26.10;52.20;;;;;;5029157;28;19917;-63
2021/06/18 08:53:26;;;;;;;;;;;26.10;52.20;;;;;;5012043;28;20352;-62
2021/06/18 08:55:51;;;;;;;;;;;26.10;52.10;;;;;;5049252;22;20576;-64
2021/06/18 08:58:17;;;;;;;;;;;26.10;52.10;;;;;;5017440;28;19917;-62
2021/06/18 09:00:42;;;;;;;;;;;26.10;52.00;;;;;;5016925;28;19913;-58
2021/06/18 09:03:26;;;;;;;;;;;26.10;52.20;;;;;;5004985;28;20282;-62
2021/06/18 09:05:52;;;;;;;;;;;26.10;52.30;;;;;;4993474;28;19913;-61
2021/06/18 09:08:18;;;;;;;;;;;26.10;52.20;;;;;;5003898;28;19921;-61
2021/06/18 09:10:44;;;;;;;;;;;26.10;52.30;;;;;;5018761;28;19917;-63
2021/06/18 09:13:12;;;;;;;;;;;26.10;52.10;;;;;;5004272;28;19918;-62
2021/06/18 09:15:39;;;;;;;;;;;26.10;52.00;;;;;;4984517;28;19926;-63
2021/06/18 09:18:19;;;;;;;;;;;26.10;52.00;;;;;;4989998;28;20290;-62
2021/06/18 09:20:45;;;;;;;;;;;26.10;52.20;;;;;;5003234;28;20398;-60
2021/06/18 09:23:27;;;;;;;;;;;26.10;51.80;;;;;;4986362;28;19921;-62
2021/06/18 09:26:16;;;;;;;;;;;26.10;51.60;;;;;;4992749;28;19917;-63
2021/06/18 09:29:00;;;;;;;;;;;26.10;51.60;;;;;;4988800;28;20312;-62
2021/06/18 09:31:25;;;;;;;;;;;26.10;51.70;;;;;;4983538;28;19976;-66
2021/06/18 09:33:51;;;;;;;;;;;26.10;51.10;;;;;;4989083;28;19961;-62
2021/06/18 09:36:16;;;;;;;;;;;26.10;51.20;;;;;;4987554;28;19913;-63
2021/06/18 09:38:43;;;;;;;;;;;26.10;51.80;;;;;;4984643;28;20627;-62
2021/06/18 09:41:27;;;;;;;;;;;26.10;51.30;;;;;;4987051;28;20115;-62
2021/06/18 09:43:52;;;;;;;;;;;26.10;51.00;;;;;;4996230;28;19913;-62
2021/06/18 09:46:18;;;;;;;;;;;26.10;50.30;;;;;;5003440;28;19963;-62
2021/06/18 09:48:44;;;;;;;;;;;26.10;51.10;;;;;;5000698;28;19929;-62
2021/06/18 09:51:10;;;;;;;;;;;26.10;50.50;;;;;;4983936;28;19918;-62
2021/06/18 09:53:36;;;;;;;;;;;26.10;51.20;;;;;;4991440;28;21008;-61
2021/06/18 09:56:09;;;;;;;;;;;26.10;50.30;;;;;;4992118;28;19922;-63
2021/06/18 09:58:35;;;;;;;;;;;26.10;50.60;;;;;;4995042;28;19924;-61
2021/06/18 10:01:13;;;;;;;;;;;26.10;50.50;;;;;;4996113;28;20012;-63
2021/06/18 10:03:55;;;;;;;;;;;26.10;50.10;;;;;;4978202;28;19924;-63
2021/06/18 10:06:22;;;;;;;;;;;26.10;50.10;;;;;;4983912;28;19918;-62
2021/06/18 10:08:47;;;;;;;;;;;26.10;50.30;;;;;;4992109;28;19917;-63
2021/06/18 10:11:12;;;;;;;;;;;26.20;49.90;;;;;;5018086;28;19919;-62
2021/06/18 10:13:38;;;;;;;;;;;26.10;49.70;;;;;;4995559;28;19913;-63
2021/06/18 10:16:03;;;;;;;;;;;26.20;49.90;;;;;;4986870;28;19921;-62
2021/06/18 10:18:29;;;;;;;;;;;26.10;49.80;;;;;;4997335;28;19997;-60
2021/06/18 10:20:54;;;;;;;;;;;26.20;49.80;;;;;;4990260;28;19921;-60
2021/06/18 10:23:20;;;;;;;;;;;26.20;50.80;;;;;;4993665;28;19918;-62
2021/06/18 10:25:48;;;;;;;;;;;26.20;49.60;;;;;;5006093;28;19928;-62
2021/06/18 10:28:17;;;;;;;;;;;26.20;49.80;;;;;;4997494;28;20371;-62
2021/06/18 10:30:45;;;;;;;;;;;26.20;49.80;;;;;;5019792;28;19918;-61
2021/06/18 10:33:26;;;;;;;;;;;26.20;49.80;;;;;;4992661;28;19913;-63
2021/06/18 10:36:02;;;;;;;;;;;26.20;49.80;;;;;;4987606;28;19990;-62
2021/06/18 10:38:28;;;;;;;;;;;26.20;49.80;;;;;;4989901;28;19965;-62
2021/06/18 10:40:53;;;;;;;;;;;26.20;49.60;;;;;;5004708;28;19951;-60
2021/06/18 10:43:19;;;;;;;;;;;26.20;49.10;;;;;;5020181;28;19979;-62
2021/06/18 10:45:59;;;;;;;;;;;26.20;49.80;;;;;;5004927;28;19964;-62
2021/06/18 10:48:43;;;;;;;;;;;26.20;49.70;;;;;;5005207;28;20386;-62
2021/06/18 10:51:28;;;;;;;;;;;26.20;49.10;;;;;;5005088;28;19914;-61
2021/06/18 10:53:55;;;;;;;;;;;26.30;49.20;;;;;;4998482;28;19918;-62
2021/06/18 10:56:21;;;;;;;;;;;26.30;49.20;;;;;;5001996;28;19925;-62
2021/06/18 10:59:04;;;;;;;;;;;26.20;48.90;;;;;;5019880;28;19929;-62
2021/06/18 11:01:31;;;;;;;;;;;26.30;49.10;;;;;;5016022;28;19921;-62
2021/06/18 11:03:57;;;;;;;;;;;26.30;48.90;;;;;;5004713;28;20290;-62
2021/06/18 11:06:40;;;;;;;;;;;26.30;49.00;;;;;;5005381;28;19924;-63
2021/06/18 11:09:06;;;;;;;;;;;26.30;49.00;;;;;;5000145;28;19913;-63
2021/06/18 11:11:32;;;;;;;;;;;26.30;48.90;;;;;;4995079;28;19920;-63
2021/06/18 11:14:04;;;;;;;;;;;26.30;48.80;;;;;;4999753;28;19925;-63
2021/06/18 11:16:34;;;;;;;;;;;26.30;48.70;;;;;;4992927;28;20477;-62
2021/06/18 11:19:18;;;;;;;;;;;26.30;48.60;;;;;;5004368;28;19914;-62
2021/06/18 11:21:43;;;;;;;;;;;26.30;48.50;;;;;;5019233;28;20004;-63
2021/06/18 11:24:09;;;;;;;;;;;26.30;48.60;;;;;;4990304;28;19924;-59
2021/06/18 11:26:34;;;;;;;;;;;26.30;48.60;;;;;;4998299;28;20021;-61
2021/06/18 11:29:00;;;;;;;;;;;26.30;48.30;;;;;;5004267;28;20404;-62
2021/06/18 11:31:41;;;;;;;;;;;26.30;48.60;;;;;;4990771;28;19914;-62
2021/06/18 11:34:07;;;;;;;;;;;26.30;48.30;;;;;;4993197;28;20004;-62
2021/06/18 11:36:35;;;;;;;;;;;26.30;48.50;;;;;;5012178;28;19984;-62
2021/06/18 11:39:04;;;;;;;;;;;26.40;48.70;;;;;;5003666;28;19991;-62
2021/06/18 11:41:30;;;;;;;;;;;26.30;48.60;;;;;;4988089;28;20327;-62
2021/06/18 11:43:56;;;;;;;;;;;26.40;48.70;;;;;;4984641;28;19918;-62
2021/06/18 11:46:22;;;;;;;;;;;26.30;48.70;;;;;;4989146;28;19996;-62
2021/06/18 11:48:48;;;;;;;;;;;26.30;48.20;;;;;;5008058;28;19917;-62
2021/06/18 11:51:23;;;;;;;;;;;26.30;48.10;;;;;;4995346;28;20721;-62
2021/06/18 11:53:49;;;;;;;;;;;26.40;48.30;;;;;;5007928;28;19972;-62
2021/06/18 11:56:14;;;;;;;;;;;26.40;48.60;;;;;;4997244;28;19965;-63
2021/06/18 11:58:40;;;;;;;;;;;26.40;48.40;;;;;;4987535;28;20375;-62
2021/06/18 12:01:18;;;;;;;;;;;26.40;48.40;;;;;;5005532;28;20139;-61
2021/06/18 12:03:47;;;;;;;;;;;26.40;48.50;;;;;;5007452;28;20354;-62
2021/06/18 12:06:19;;;;;;;;;;;26.40;48.50;;;;;;4986838;28;20037;-62
2021/06/18 12:09:00;;;;;;;;;;;26.40;48.70;;;;;;4997185;28;19917;-62
2021/06/18 12:11:26;;;;;;;;;;;26.40;48.70;;;;;;5016079;28;19928;-62
2021/06/18 12:13:52;;;;;;;;;;;26.40;48.50;;;;;;4988169;28;19918;-63
2021/06/18 12:16:19;;;;;;;;;;;26.40;48.80;;;;;;4988572;28;20295;-62
2021/06/18 12:18:44;;;;;;;;;;;26.40;48.70;;;;;;5002804;28;19920;-63
2021/06/18 12:21:10;;;;;;;;;;;26.40;48.70;;;;;;4988433;28;19918;-62
2021/06/18 12:23:35;;;;;;;;;;;26.40;49.10;;;;;;4987694;28;19976;-62
2021/06/18 12:26:00;;;;;;;;;;;26.40;48.90;;;;;;4996009;28;19937;-62
2021/06/18 12:28:26;;;;;;;;;;;26.40;49.10;;;;;;4991681;28;19914;-61
2021/06/18 12:30:55;;;;;;;;;;;26.40;49.10;;;;;;5005875;28;19917;-62
2021/06/18 12:33:22;;;;;;;;;;;26.40;48.90;;;;;;4988635;28;20611;-60
2021/06/18 12:35:47;;;;;;;;;;;26.50;48.90;;;;;;4995105;28;20409;-62
2021/06/18 12:38:13;;;;;;;;;;;26.50;49.00;;;;;;5021860;28;19914;-62
2021/06/18 12:40:38;;;;;;;;;;;26.50;49.00;;;;;;4989017;28;20391;-61
2021/06/18 12:43:08;;;;;;;;;;;26.50;49.30;;;;;;4990889;28;20370;-62
2021/06/18 12:45:37;;;;;;;;;;;26.40;49.10;;;;;;4996893;28;19921;-62
2021/06/18 12:48:15;;;;;;;;;;;26.50;49.30;;;;;;4998546;28;20363;-61
2021/06/18 12:50:48;;;;;;;;;;;26.50;49.20;;;;;;4985239;28;19948;-62
2021/06/18 12:53:14;;;;;;;;;;;26.50;49.20;;;;;;4995528;28;19934;-62
2021/06/18 12:55:41;;;;;;;;;;;26.50;49.10;;;;;;5001503;28;19918;-62
2021/06/18 12:58:06;;;;;;;;;;;26.50;49.00;;;;;;4987846;28;19918;-63
2021/06/18 13:00:37;;;;;;;;;;;26.50;49.10;;;;;;4999694;28;19933;-63
2021/06/18 13:03:02;;;;;;;;;;;26.50;49.10;;;;;;5008339;28;19949;-63
2021/06/18 13:05:28;;;;;;;;;;;26.50;50.10;;;;;;4980561;28;19961;-63
2021/06/18 13:07:53;;;;;;;;;;;26.50;48.90;;;;;;4993464;28;20007;-62
2021/06/18 13:10:19;;;;;;;;;;;26.50;49.00;;;;;;4994099;28;19925;-62
2021/06/18 13:12:56;;;;;;;;;;;26.50;49.20;;;;;;4996339;28;19913;-63
2021/06/18 13:15:26;;;;;;;;;;;26.60;49.20;;;;;;5002007;28;19918;-62
2021/06/18 13:17:51;;;;;;;;;;;26.60;49.10;;;;;;5007302;28;19956;-62
2021/06/18 13:20:36;;;;;;;;;;;26.60;50.10;;;;;;5006875;28;19961;-61
2021/06/18 13:23:01;;;;;;;;;;;26.60;49.20;;;;;;4983454;28;20276;-61
2021/06/18 13:25:27;;;;;;;;;;;26.60;49.20;;;;;;4985551;28;20004;-62
2021/06/18 13:27:53;;;;;;;;;;;26.60;49.20;;;;;;4995410;28;20354;-62
2021/06/18 13:30:18;;;;;;;;;;;26.60;49.20;;;;;;5001800;28;19913;-62
2021/06/18 13:32:48;;;;;;;;;;;26.60;49.20;;;;;;5006534;28;19967;-61
2021/06/18 13:35:13;;;;;;;;;;;26.60;48.90;;;;;;5005708;28;20000;-62
2021/06/18 13:37:39;;;;;;;;;;;26.60;49.00;;;;;;5002150;28;19997;-63
2021/06/18 13:40:23;;;;;;;;;;;26.60;49.00;;;;;;5000652;28;19914;-63
2021/06/18 13:42:48;;;;;;;;;;;26.60;48.80;;;;;;4994929;28;19968;-62
2021/06/18 13:45:14;;;;;;;;;;;26.60;48.80;;;;;;4994786;28;19917;-63
2021/06/18 13:47:39;;;;;;;;;;;26.60;48.60;;;;;;4986342;28;19941;-64
2021/06/18 13:50:05;;;;;;;;;;;26.60;48.70;;;;;;5003925;28;19918;-62
2021/06/18 13:52:31;;;;;;;;;;;26.70;48.90;;;;;;4986976;28;20379;-61
2021/06/18 13:54:56;;;;;;;;;;;26.70;48.80;;;;;;4999074;28;19921;-61
2021/06/18 13:57:22;;;;;;;;;;;26.70;48.90;;;;;;4994837;28;19929;-62
2021/06/18 13:59:47;;;;;;;;;;;26.70;49.10;;;;;;4988365;28;19914;-63
2021/06/18 14:02:13;;;;;;;;;;;26.70;49.10;;;;;;4999971;28;19913;-61
2021/06/18 14:04:38;;;;;;;;;;;26.70;49.10;;;;;;4990825;28;19942;-62
2021/06/18 14:07:04;;;;;;;;;;;26.70;49.10;;;;;;4998988;28;19952;-61
2021/06/18 14:09:29;;;;;;;;;;;26.70;49.10;;;;;;4997070;28;20328;-63
2021/06/18 14:11:54;;;;;;;;;;;26.70;49.40;;;;;;4985728;28;19917;-63
2021/06/18 14:14:20;;;;;;;;;;;26.70;49.10;;;;;;4989857;28;19918;-62
2021/06/18 14:16:46;;;;;;;;;;;26.70;49.30;;;;;;5001590;28;19914;-61